sensor_id;sensor_type;location;lat;lon;timestamp;P1;durP1;ratioP1;P2;durP2;ratioP2
75854;SDS011;64502;59.976;30.316;2024-02-15T00:01:22;14.43;;;4.90;;
75854;SDS011;64502;59.976;30.316;2024-02-15T00:03:48;10.07;;;3.97;;
75854;SDS011;64502;59.976;30.316;2024-02-15T00:06:14;10.52;;;4.38;;
75854;SDS011;64502;59.976;30.316;2024-02-15T00:08:40;11.20;;;5.03;;
75854;SDS011;64502;59.976;30.316;2024-02-15T00:11:24;13.35;;;4.63;;
75854;SDS011;64502;59.976;30.316;2024-02-15T00:13:50;11.23;;;5.13;;
75854;SDS011;64502;59.976;30.316;2024-02-15T00:16:15;10.65;;;5.00;;
75854;SDS011;64502;59.976;30.316;2024-02-15T00:18:41;10.40;;;4.07;;
75854;SDS011;64502;59.976;30.316;2024-02-15T00:21:07;10.98;;;4.35;;
75854;SDS011;64502;59.976;30.316;2024-02-15T00:23:32;11.75;;;4.88;;
75854;SDS011;64502;59.976;30.316;2024-02-15T00:25:58;10.23;;;4.15;;
75854;SDS011;64502;59.976;30.316;2024-02-15T00:28:24;12.65;;;4.57;;
75854;SDS011;64502;59.976;30.316;2024-02-15T00:30:51;10.60;;;3.95;;
75854;SDS011;64502;59.976;30.316;2024-02-15T00:33:17;10.25;;;4.28;;
75854;SDS011;64502;59.976;30.316;2024-02-15T00:35:43;8.68;;;4.20;;
75854;SDS011;64502;59.976;30.316;2024-02-15T00:38:08;9.85;;;4.20;;
75854;SDS011;64502;59.976;30.316;2024-02-15T00:40:34;9.25;;;3.92;;
75854;SDS011;64502;59.976;30.316;2024-02-15T00:42:59;9.65;;;4.28;;
75854;SDS011;64502;59.976;30.316;2024-02-15T00:45:26;11.88;;;4.70;;
75854;SDS011;64502;59.976;30.316;2024-02-15T00:47:52;15.32;;;4.35;;
75854;SDS011;64502;59.976;30.316;2024-02-15T00:50:19;11.18;;;4.20;;
75854;SDS011;64502;59.976;30.316;2024-02-15T00:52:44;10.60;;;3.97;;
75854;SDS011;64502;59.976;30.316;2024-02-15T00:55:10;10.43;;;4.68;;
75854;SDS011;64502;59.976;30.316;2024-02-15T00:57:36;13.85;;;4.75;;
75854;SDS011;64502;59.976;30.316;2024-02-15T01:00:02;11.90;;;4.65;;
75854;SDS011;64502;59.976;30.316;2024-02-15T01:02:28;10.82;;;4.50;;
75854;SDS011;64502;59.976;30.316;2024-02-15T01:04:54;10.52;;;4.07;;
75854;SDS011;64502;59.976;30.316;2024-02-15T01:07:22;11.73;;;4.32;;
75854;SDS011;64502;59.976;30.316;2024-02-15T01:10:06;12.55;;;4.30;;
75854;SDS011;64502;59.976;30.316;2024-02-15T01:12:32;12.95;;;4.75;;
75854;SDS011;64502;59.976;30.316;2024-02-15T01:14:58;13.63;;;5.38;;
75854;SDS011;64502;59.976;30.316;2024-02-15T01:17:24;10.68;;;4.95;;
75854;SDS011;64502;59.976;30.316;2024-02-15T01:19:49;11.23;;;4.13;;
75854;SDS011;64502;59.976;30.316;2024-02-15T01:22:15;14.52;;;5.35;;
75854;SDS011;64502;59.976;30.316;2024-02-15T01:24:41;11.70;;;4.32;;
75854;SDS011;64502;59.976;30.316;2024-02-15T01:27:26;11.45;;;4.90;;
75854;SDS011;64502;59.976;30.316;2024-02-15T01:29:55;13.48;;;4.72;;
75854;SDS011;64502;59.976;30.316;2024-02-15T01:32:23;12.75;;;4.35;;
75854;SDS011;64502;59.976;30.316;2024-02-15T01:34:50;6.55;;;3.55;;
75854;SDS011;64502;59.976;30.316;2024-02-15T01:37:19;10.50;;;4.45;;
75854;SDS011;64502;59.976;30.316;2024-02-15T01:39:45;11.75;;;4.57;;
75854;SDS011;64502;59.976;30.316;2024-02-15T01:42:11;13.15;;;4.43;;
75854;SDS011;64502;59.976;30.316;2024-02-15T01:44:39;10.23;;;5.15;;
75854;SDS011;64502;59.976;30.316;2024-02-15T01:47:09;11.35;;;4.35;;
75854;SDS011;64502;59.976;30.316;2024-02-15T01:49:36;11.73;;;5.18;;
75854;SDS011;64502;59.976;30.316;2024-02-15T01:52:02;10.82;;;4.53;;
75854;SDS011;64502;59.976;30.316;2024-02-15T01:54:30;9.77;;;4.43;;
75854;SDS011;64502;59.976;30.316;2024-02-15T01:56:57;11.30;;;4.80;;
75854;SDS011;64502;59.976;30.316;2024-02-15T01:59:23;9.77;;;3.83;;
75854;SDS011;64502;59.976;30.316;2024-02-15T02:01:50;9.63;;;4.43;;
75854;SDS011;64502;59.976;30.316;2024-02-15T02:04:16;10.25;;;4.07;;
75854;SDS011;64502;59.976;30.316;2024-02-15T02:06:41;10.65;;;3.85;;
75854;SDS011;64502;59.976;30.316;2024-02-15T02:09:10;11.52;;;4.13;;
75854;SDS011;64502;59.976;30.316;2024-02-15T02:11:49;10.25;;;5.20;;
75854;SDS011;64502;59.976;30.316;2024-02-15T02:14:16;8.57;;;3.88;;
75854;SDS011;64502;59.976;30.316;2024-02-15T02:16:42;10.75;;;4.20;;
75854;SDS011;64502;59.976;30.316;2024-02-15T02:19:08;12.55;;;4.10;;
75854;SDS011;64502;59.976;30.316;2024-02-15T02:21:35;8.90;;;3.92;;
75854;SDS011;64502;59.976;30.316;2024-02-15T02:24:04;10.07;;;4.68;;
75854;SDS011;64502;59.976;30.316;2024-02-15T02:26:38;8.15;;;4.03;;
75854;SDS011;64502;59.976;30.316;2024-02-15T02:29:04;9.30;;;4.38;;
75854;SDS011;64502;59.976;30.316;2024-02-15T02:31:33;13.10;;;5.05;;
75854;SDS011;64502;59.976;30.316;2024-02-15T02:34:02;9.98;;;3.83;;
75854;SDS011;64502;59.976;30.316;2024-02-15T02:36:28;14.10;;;4.72;;
75854;SDS011;64502;59.976;30.316;2024-02-15T02:38:55;11.32;;;4.45;;
75854;SDS011;64502;59.976;30.316;2024-02-15T02:41:25;13.02;;;4.35;;
75854;SDS011;64502;59.976;30.316;2024-02-15T02:43:51;9.50;;;4.13;;
75854;SDS011;64502;59.976;30.316;2024-02-15T02:46:16;13.48;;;5.05;;
75854;SDS011;64502;59.976;30.316;2024-02-15T02:51:26;11.70;;;4.25;;
75854;SDS011;64502;59.976;30.316;2024-02-15T02:53:52;12.43;;;4.68;;
75854;SDS011;64502;59.976;30.316;2024-02-15T02:56:17;12.27;;;5.07;;
75854;SDS011;64502;59.976;30.316;2024-02-15T02:58:43;13.15;;;4.85;;
75854;SDS011;64502;59.976;30.316;2024-02-15T03:01:09;11.95;;;5.00;;
75854;SDS011;64502;59.976;30.316;2024-02-15T03:03:38;15.77;;;5.03;;
75854;SDS011;64502;59.976;30.316;2024-02-15T03:06:04;11.90;;;4.75;;
75854;SDS011;64502;59.976;30.316;2024-02-15T03:08:36;14.77;;;5.13;;
75854;SDS011;64502;59.976;30.316;2024-02-15T03:11:02;14.90;;;5.18;;
75854;SDS011;64502;59.976;30.316;2024-02-15T03:13:28;12.77;;;4.78;;
75854;SDS011;64502;59.976;30.316;2024-02-15T03:15:54;14.85;;;6.32;;
75854;SDS011;64502;59.976;30.316;2024-02-15T03:18:19;15.00;;;5.35;;
75854;SDS011;64502;59.976;30.316;2024-02-15T03:20:46;14.88;;;6.03;;
75854;SDS011;64502;59.976;30.316;2024-02-15T03:23:13;14.25;;;5.15;;
75854;SDS011;64502;59.976;30.316;2024-02-15T03:25:39;15.18;;;5.82;;
75854;SDS011;64502;59.976;30.316;2024-02-15T03:28:04;16.77;;;5.15;;
75854;SDS011;64502;59.976;30.316;2024-02-15T03:30:31;14.63;;;5.40;;
75854;SDS011;64502;59.976;30.316;2024-02-15T03:32:59;13.57;;;6.45;;
75854;SDS011;64502;59.976;30.316;2024-02-15T03:35:25;18.83;;;5.95;;
75854;SDS011;64502;59.976;30.316;2024-02-15T03:37:52;15.35;;;5.90;;
75854;SDS011;64502;59.976;30.316;2024-02-15T03:40:18;15.25;;;6.55;;
75854;SDS011;64502;59.976;30.316;2024-02-15T03:42:45;16.45;;;5.95;;
75854;SDS011;64502;59.976;30.316;2024-02-15T03:45:11;13.30;;;5.65;;
75854;SDS011;64502;59.976;30.316;2024-02-15T03:47:37;14.32;;;5.28;;
75854;SDS011;64502;59.976;30.316;2024-02-15T03:50:06;16.00;;;6.32;;
75854;SDS011;64502;59.976;30.316;2024-02-15T03:52:40;17.88;;;5.63;;
75854;SDS011;64502;59.976;30.316;2024-02-15T03:55:06;13.48;;;5.57;;
75854;SDS011;64502;59.976;30.316;2024-02-15T03:57:32;15.70;;;5.55;;
75854;SDS011;64502;59.976;30.316;2024-02-15T03:59:58;15.25;;;5.53;;
75854;SDS011;64502;59.976;30.316;2024-02-15T04:02:24;15.75;;;5.60;;
75854;SDS011;64502;59.976;30.316;2024-02-15T04:04:55;12.35;;;5.28;;
75854;SDS011;64502;59.976;30.316;2024-02-15T04:07:22;14.30;;;5.45;;
75854;SDS011;64502;59.976;30.316;2024-02-15T04:10:06;14.43;;;5.78;;
75854;SDS011;64502;59.976;30.316;2024-02-15T04:12:33;16.92;;;6.40;;
75854;SDS011;64502;59.976;30.316;2024-02-15T04:14:59;15.95;;;6.43;;
75854;SDS011;64502;59.976;30.316;2024-02-15T04:17:30;16.05;;;6.72;;
75854;SDS011;64502;59.976;30.316;2024-02-15T04:19:58;15.57;;;6.60;;
75854;SDS011;64502;59.976;30.316;2024-02-15T04:22:23;9.75;;;5.03;;
75854;SDS011;64502;59.976;30.316;2024-02-15T04:24:50;14.30;;;5.50;;
75854;SDS011;64502;59.976;30.316;2024-02-15T04:27:15;15.73;;;5.90;;
75854;SDS011;64502;59.976;30.316;2024-02-15T04:29:45;14.77;;;5.85;;
75854;SDS011;64502;59.976;30.316;2024-02-15T04:32:12;17.67;;;5.75;;
75854;SDS011;64502;59.976;30.316;2024-02-15T04:34:38;13.32;;;6.05;;
75854;SDS011;64502;59.976;30.316;2024-02-15T04:37:05;13.45;;;6.05;;
75854;SDS011;64502;59.976;30.316;2024-02-15T04:39:37;15.07;;;5.57;;
75854;SDS011;64502;59.976;30.316;2024-02-15T04:42:03;16.50;;;6.07;;
75854;SDS011;64502;59.976;30.316;2024-02-15T04:44:36;13.77;;;6.03;;
75854;SDS011;64502;59.976;30.316;2024-02-15T04:47:04;16.73;;;6.95;;
75854;SDS011;64502;59.976;30.316;2024-02-15T04:49:30;20.13;;;6.85;;
75854;SDS011;64502;59.976;30.316;2024-02-15T04:51:55;15.25;;;5.80;;
75854;SDS011;64502;59.976;30.316;2024-02-15T04:54:26;16.50;;;5.82;;
75854;SDS011;64502;59.976;30.316;2024-02-15T04:56:52;16.90;;;6.10;;
75854;SDS011;64502;59.976;30.316;2024-02-15T04:59:19;16.17;;;5.65;;
75854;SDS011;64502;59.976;30.316;2024-02-15T05:02:03;18.63;;;6.80;;
75854;SDS011;64502;59.976;30.316;2024-02-15T05:04:29;12.18;;;5.18;;
75854;SDS011;64502;59.976;30.316;2024-02-15T05:06:54;18.00;;;5.80;;
75854;SDS011;64502;59.976;30.316;2024-02-15T05:09:21;19.27;;;6.85;;
75854;SDS011;64502;59.976;30.316;2024-02-15T05:11:47;15.18;;;6.47;;
75854;SDS011;64502;59.976;30.316;2024-02-15T05:14:16;18.38;;;6.78;;
75854;SDS011;64502;59.976;30.316;2024-02-15T05:19:32;14.43;;;5.07;;
75854;SDS011;64502;59.976;30.316;2024-02-15T05:21:57;15.90;;;6.40;;
75854;SDS011;64502;59.976;30.316;2024-02-15T05:24:23;15.20;;;5.82;;
75854;SDS011;64502;59.976;30.316;2024-02-15T05:26:48;17.58;;;6.57;;
75854;SDS011;64502;59.976;30.316;2024-02-15T05:29:15;16.73;;;5.50;;
75854;SDS011;64502;59.976;30.316;2024-02-15T05:31:41;16.55;;;6.07;;
75854;SDS011;64502;59.976;30.316;2024-02-15T05:34:07;15.88;;;6.07;;
75854;SDS011;64502;59.976;30.316;2024-02-15T05:36:33;21.05;;;6.72;;
75854;SDS011;64502;59.976;30.316;2024-02-15T05:38:59;17.83;;;6.25;;
75854;SDS011;64502;59.976;30.316;2024-02-15T05:41:25;16.48;;;6.47;;
75854;SDS011;64502;59.976;30.316;2024-02-15T05:43:51;21.88;;;8.20;;
75854;SDS011;64502;59.976;30.316;2024-02-15T05:46:19;17.95;;;7.07;;
75854;SDS011;64502;59.976;30.316;2024-02-15T05:48:48;18.85;;;6.78;;
75854;SDS011;64502;59.976;30.316;2024-02-15T05:51:14;18.42;;;6.53;;
75854;SDS011;64502;59.976;30.316;2024-02-15T05:53:40;22.67;;;7.40;;
75854;SDS011;64502;59.976;30.316;2024-02-15T05:56:06;19.17;;;6.07;;
75854;SDS011;64502;59.976;30.316;2024-02-15T05:58:33;19.73;;;6.07;;
75854;SDS011;64502;59.976;30.316;2024-02-15T06:01:01;19.30;;;6.65;;
75854;SDS011;64502;59.976;30.316;2024-02-15T06:03:30;16.90;;;6.32;;
75854;SDS011;64502;59.976;30.316;2024-02-15T06:06:02;18.40;;;6.85;;
75854;SDS011;64502;59.976;30.316;2024-02-15T06:08:31;21.08;;;6.25;;
75854;SDS011;64502;59.976;30.316;2024-02-15T06:13:45;22.38;;;7.10;;
75854;SDS011;64502;59.976;30.316;2024-02-15T06:16:11;18.33;;;6.68;;
75854;SDS011;64502;59.976;30.316;2024-02-15T06:21:21;16.83;;;6.82;;
75854;SDS011;64502;59.976;30.316;2024-02-15T06:23:46;22.50;;;7.68;;
75854;SDS011;64502;59.976;30.316;2024-02-15T06:26:13;17.90;;;6.35;;
75854;SDS011;64502;59.976;30.316;2024-02-15T06:28:39;18.63;;;6.32;;
75854;SDS011;64502;59.976;30.316;2024-02-15T06:31:23;18.80;;;7.15;;
75854;SDS011;64502;59.976;30.316;2024-02-15T06:34:06;19.08;;;6.78;;
75854;SDS011;64502;59.976;30.316;2024-02-15T06:36:52;21.85;;;6.53;;
75854;SDS011;64502;59.976;30.316;2024-02-15T06:39:37;22.45;;;7.88;;
75854;SDS011;64502;59.976;30.316;2024-02-15T06:42:03;22.05;;;8.27;;
75854;SDS011;64502;59.976;30.316;2024-02-15T06:44:29;17.60;;;6.90;;
75854;SDS011;64502;59.976;30.316;2024-02-15T06:46:54;17.50;;;6.72;;
75854;SDS011;64502;59.976;30.316;2024-02-15T06:49:22;25.02;;;8.25;;
75854;SDS011;64502;59.976;30.316;2024-02-15T06:51:50;21.77;;;7.28;;
75854;SDS011;64502;59.976;30.316;2024-02-15T06:54:16;19.15;;;8.18;;
75854;SDS011;64502;59.976;30.316;2024-02-15T06:57:01;19.30;;;6.95;;
75854;SDS011;64502;59.976;30.316;2024-02-15T06:59:27;19.92;;;6.90;;
75854;SDS011;64502;59.976;30.316;2024-02-15T07:01:53;21.33;;;7.10;;
75854;SDS011;64502;59.976;30.316;2024-02-15T07:04:19;18.70;;;6.55;;
75854;SDS011;64502;59.976;30.316;2024-02-15T07:06:45;20.38;;;7.20;;
75854;SDS011;64502;59.976;30.316;2024-02-15T07:09:14;21.10;;;7.20;;
75854;SDS011;64502;59.976;30.316;2024-02-15T07:11:41;18.42;;;7.40;;
75854;SDS011;64502;59.976;30.316;2024-02-15T07:14:07;20.67;;;8.10;;
75854;SDS011;64502;59.976;30.316;2024-02-15T07:16:34;21.65;;;7.15;;
75854;SDS011;64502;59.976;30.316;2024-02-15T07:19:00;22.02;;;7.18;;
75854;SDS011;64502;59.976;30.316;2024-02-15T07:21:26;20.55;;;8.10;;
75854;SDS011;64502;59.976;30.316;2024-02-15T07:23:55;19.40;;;8.10;;
75854;SDS011;64502;59.976;30.316;2024-02-15T07:26:21;23.15;;;8.20;;
75854;SDS011;64502;59.976;30.316;2024-02-15T07:28:53;22.02;;;7.78;;
75854;SDS011;64502;59.976;30.316;2024-02-15T07:31:22;18.70;;;7.55;;
75854;SDS011;64502;59.976;30.316;2024-02-15T07:33:54;26.70;;;8.70;;
75854;SDS011;64502;59.976;30.316;2024-02-15T07:36:20;20.85;;;7.20;;
75854;SDS011;64502;59.976;30.316;2024-02-15T07:38:52;23.13;;;7.90;;
75854;SDS011;64502;59.976;30.316;2024-02-15T07:41:21;22.88;;;8.57;;
75854;SDS011;64502;59.976;30.316;2024-02-15T07:43:50;27.10;;;8.27;;
75854;SDS011;64502;59.976;30.316;2024-02-15T07:46:20;21.50;;;8.27;;
75854;SDS011;64502;59.976;30.316;2024-02-15T07:48:46;23.60;;;9.57;;
75854;SDS011;64502;59.976;30.316;2024-02-15T07:51:13;25.27;;;9.00;;
75854;SDS011;64502;59.976;30.316;2024-02-15T07:53:40;26.13;;;8.60;;
75854;SDS011;64502;59.976;30.316;2024-02-15T07:56:08;23.63;;;8.27;;
75854;SDS011;64502;59.976;30.316;2024-02-15T07:58:38;21.90;;;8.30;;
75854;SDS011;64502;59.976;30.316;2024-02-15T08:01:06;21.02;;;8.18;;
75854;SDS011;64502;59.976;30.316;2024-02-15T08:03:51;21.00;;;7.03;;
75854;SDS011;64502;59.976;30.316;2024-02-15T08:06:18;18.30;;;7.28;;
75854;SDS011;64502;59.976;30.316;2024-02-15T08:08:44;24.15;;;8.23;;
75854;SDS011;64502;59.976;30.316;2024-02-15T08:11:12;20.63;;;7.53;;
75854;SDS011;64502;59.976;30.316;2024-02-15T08:13:49;21.60;;;7.95;;
75854;SDS011;64502;59.976;30.316;2024-02-15T08:16:19;25.20;;;8.93;;
75854;SDS011;64502;59.976;30.316;2024-02-15T08:18:48;24.25;;;9.48;;
75854;SDS011;64502;59.976;30.316;2024-02-15T08:21:17;21.25;;;7.68;;
75854;SDS011;64502;59.976;30.316;2024-02-15T08:23:43;20.40;;;8.30;;
75854;SDS011;64502;59.976;30.316;2024-02-15T08:26:09;26.65;;;8.68;;
75854;SDS011;64502;59.976;30.316;2024-02-15T08:28:38;26.08;;;8.27;;
75854;SDS011;64502;59.976;30.316;2024-02-15T08:31:03;25.48;;;9.93;;
75854;SDS011;64502;59.976;30.316;2024-02-15T08:33:29;29.35;;;9.27;;
75854;SDS011;64502;59.976;30.316;2024-02-15T08:35:55;23.50;;;9.73;;
75854;SDS011;64502;59.976;30.316;2024-02-15T08:38:24;26.15;;;9.60;;
75854;SDS011;64502;59.976;30.316;2024-02-15T08:40:50;26.48;;;9.65;;
75854;SDS011;64502;59.976;30.316;2024-02-15T08:43:15;28.63;;;10.32;;
75854;SDS011;64502;59.976;30.316;2024-02-15T08:45:42;27.45;;;9.82;;
75854;SDS011;64502;59.976;30.316;2024-02-15T08:48:08;28.73;;;9.80;;
75854;SDS011;64502;59.976;30.316;2024-02-15T08:50:35;22.45;;;9.98;;
75854;SDS011;64502;59.976;30.316;2024-02-15T08:53:01;26.42;;;9.65;;
75854;SDS011;64502;59.976;30.316;2024-02-15T08:55:31;24.05;;;9.60;;
75854;SDS011;64502;59.976;30.316;2024-02-15T08:57:56;26.15;;;9.93;;
75854;SDS011;64502;59.976;30.316;2024-02-15T09:00:22;24.70;;;9.60;;
75854;SDS011;64502;59.976;30.316;2024-02-15T09:02:49;23.60;;;9.80;;
75854;SDS011;64502;59.976;30.316;2024-02-15T09:05:16;25.52;;;9.55;;
75854;SDS011;64502;59.976;30.316;2024-02-15T09:07:43;27.02;;;8.60;;
75854;SDS011;64502;59.976;30.316;2024-02-15T09:10:13;25.23;;;9.15;;
75854;SDS011;64502;59.976;30.316;2024-02-15T09:12:44;26.80;;;9.60;;
75854;SDS011;64502;59.976;30.316;2024-02-15T09:15:12;21.95;;;9.23;;
75854;SDS011;64502;59.976;30.316;2024-02-15T09:17:39;29.80;;;10.65;;
75854;SDS011;64502;59.976;30.316;2024-02-15T09:20:11;20.80;;;8.98;;
75854;SDS011;64502;59.976;30.316;2024-02-15T09:25:29;25.40;;;10.25;;
75854;SDS011;64502;59.976;30.316;2024-02-15T09:27:56;26.02;;;9.48;;
75854;SDS011;64502;59.976;30.316;2024-02-15T09:30:22;25.63;;;9.38;;
75854;SDS011;64502;59.976;30.316;2024-02-15T09:32:49;27.00;;;9.07;;
75854;SDS011;64502;59.976;30.316;2024-02-15T09:35:33;22.77;;;8.48;;
75854;SDS011;64502;59.976;30.316;2024-02-15T09:38:00;23.88;;;9.10;;
75854;SDS011;64502;59.976;30.316;2024-02-15T09:40:26;26.13;;;8.73;;
75854;SDS011;64502;59.976;30.316;2024-02-15T09:42:54;25.35;;;8.50;;
75854;SDS011;64502;59.976;30.316;2024-02-15T09:45:20;21.83;;;8.70;;
75854;SDS011;64502;59.976;30.316;2024-02-15T09:47:50;25.45;;;10.07;;
75854;SDS011;64502;59.976;30.316;2024-02-15T09:50:16;22.23;;;8.43;;
75854;SDS011;64502;59.976;30.316;2024-02-15T09:52:48;23.08;;;9.23;;
75854;SDS011;64502;59.976;30.316;2024-02-15T09:55:16;24.10;;;8.93;;
75854;SDS011;64502;59.976;30.316;2024-02-15T10:00:45;27.25;;;9.80;;
75854;SDS011;64502;59.976;30.316;2024-02-15T10:03:11;25.05;;;8.40;;
75854;SDS011;64502;59.976;30.316;2024-02-15T10:05:41;22.92;;;9.63;;
75854;SDS011;64502;59.976;30.316;2024-02-15T10:08:07;22.67;;;9.23;;
75854;SDS011;64502;59.976;30.316;2024-02-15T10:10:34;25.05;;;9.48;;
75854;SDS011;64502;59.976;30.316;2024-02-15T10:13:00;26.67;;;9.40;;
75854;SDS011;64502;59.976;30.316;2024-02-15T10:15:36;26.83;;;10.13;;
75854;SDS011;64502;59.976;30.316;2024-02-15T10:18:03;24.95;;;9.85;;
75854;SDS011;64502;59.976;30.316;2024-02-15T10:20:32;19.08;;;7.95;;
75854;SDS011;64502;59.976;30.316;2024-02-15T10:23:17;26.88;;;10.02;;
75854;SDS011;64502;59.976;30.316;2024-02-15T10:25:43;23.92;;;9.25;;
75854;SDS011;64502;59.976;30.316;2024-02-15T10:28:09;26.98;;;9.90;;
75854;SDS011;64502;59.976;30.316;2024-02-15T10:30:43;25.38;;;9.52;;
75854;SDS011;64502;59.976;30.316;2024-02-15T10:38:39;23.33;;;10.18;;
75854;SDS011;64502;59.976;30.316;2024-02-15T10:41:05;23.95;;;9.68;;
75854;SDS011;64502;59.976;30.316;2024-02-15T10:43:33;26.02;;;10.35;;
75854;SDS011;64502;59.976;30.316;2024-02-15T10:46:03;25.75;;;10.93;;
75854;SDS011;64502;59.976;30.316;2024-02-15T10:48:28;24.83;;;9.50;;
75854;SDS011;64502;59.976;30.316;2024-02-15T10:51:03;25.98;;;11.07;;
75854;SDS011;64502;59.976;30.316;2024-02-15T10:53:35;26.70;;;10.13;;
75854;SDS011;64502;59.976;30.316;2024-02-15T10:56:18;22.08;;;9.35;;
75854;SDS011;64502;59.976;30.316;2024-02-15T10:58:53;31.23;;;10.40;;
75854;SDS011;64502;59.976;30.316;2024-02-15T11:01:25;27.02;;;10.73;;
75854;SDS011;64502;59.976;30.316;2024-02-15T11:03:57;28.15;;;10.25;;
75854;SDS011;64502;59.976;30.316;2024-02-15T11:06:28;25.40;;;10.30;;
75854;SDS011;64502;59.976;30.316;2024-02-15T11:08:58;21.33;;;9.73;;
75854;SDS011;64502;59.976;30.316;2024-02-15T11:11:26;21.80;;;9.02;;
75854;SDS011;64502;59.976;30.316;2024-02-15T11:17:00;23.92;;;9.35;;
75854;SDS011;64502;59.976;30.316;2024-02-15T11:22:09;24.30;;;9.90;;
75854;SDS011;64502;59.976;30.316;2024-02-15T11:24:36;25.33;;;9.77;;
75854;SDS011;64502;59.976;30.316;2024-02-15T11:27:03;22.60;;;8.98;;
75854;SDS011;64502;59.976;30.316;2024-02-15T11:32:38;28.38;;;10.32;;
75854;SDS011;64502;59.976;30.316;2024-02-15T11:35:16;26.52;;;11.02;;
75854;SDS011;64502;59.976;30.316;2024-02-15T11:40:18;26.52;;;10.60;;
75854;SDS011;64502;59.976;30.316;2024-02-15T11:42:48;24.08;;;9.43;;
75854;SDS011;64502;59.976;30.316;2024-02-15T11:45:20;29.17;;;9.82;;
75854;SDS011;64502;59.976;30.316;2024-02-15T11:47:49;21.10;;;9.00;;
75854;SDS011;64502;59.976;30.316;2024-02-15T11:50:19;26.52;;;10.50;;
75854;SDS011;64502;59.976;30.316;2024-02-15T11:52:51;24.63;;;9.55;;
75854;SDS011;64502;59.976;30.316;2024-02-15T11:55:36;25.77;;;10.50;;
75854;SDS011;64502;59.976;30.316;2024-02-15T11:58:05;21.52;;;9.63;;
75854;SDS011;64502;59.976;30.316;2024-02-15T12:00:36;28.05;;;10.80;;
75854;SDS011;64502;59.976;30.316;2024-02-15T12:03:21;25.02;;;10.07;;
75854;SDS011;64502;59.976;30.316;2024-02-15T12:06:06;21.60;;;9.80;;
75854;SDS011;64502;59.976;30.316;2024-02-15T12:08:51;28.73;;;10.05;;
75854;SDS011;64502;59.976;30.316;2024-02-15T12:11:58;26.70;;;9.50;;
75854;SDS011;64502;59.976;30.316;2024-02-15T12:17:27;17.42;;;7.72;;
75854;SDS011;64502;59.976;30.316;2024-02-15T12:20:10;24.67;;;8.60;;
75854;SDS011;64502;59.976;30.316;2024-02-15T12:22:39;23.80;;;8.88;;
75854;SDS011;64502;59.976;30.316;2024-02-15T12:25:12;24.75;;;9.32;;
75854;SDS011;64502;59.976;30.316;2024-02-15T12:28:01;28.55;;;9.75;;
75854;SDS011;64502;59.976;30.316;2024-02-15T12:30:32;24.77;;;9.88;;
75854;SDS011;64502;59.976;30.316;2024-02-15T12:33:11;26.42;;;10.63;;
75854;SDS011;64502;59.976;30.316;2024-02-15T12:35:37;22.55;;;9.70;;
75854;SDS011;64502;59.976;30.316;2024-02-15T12:38:03;23.35;;;8.73;;
75854;SDS011;64502;59.976;30.316;2024-02-15T12:40:37;23.77;;;9.38;;
75854;SDS011;64502;59.976;30.316;2024-02-15T12:43:07;23.33;;;8.85;;
75854;SDS011;64502;59.976;30.316;2024-02-15T12:45:40;27.90;;;10.38;;
75854;SDS011;64502;59.976;30.316;2024-02-15T12:48:07;24.08;;;10.13;;
75854;SDS011;64502;59.976;30.316;2024-02-15T12:50:34;23.70;;;10.27;;
75854;SDS011;64502;59.976;30.316;2024-02-15T12:53:22;33.60;;;10.30;;
75854;SDS011;64502;59.976;30.316;2024-02-15T12:55:54;28.02;;;10.38;;
75854;SDS011;64502;59.976;30.316;2024-02-15T12:58:20;27.40;;;10.40;;
75854;SDS011;64502;59.976;30.316;2024-02-15T13:00:49;24.73;;;10.20;;
75854;SDS011;64502;59.976;30.316;2024-02-15T13:03:15;24.17;;;9.82;;
75854;SDS011;64502;59.976;30.316;2024-02-15T13:05:43;25.83;;;9.68;;
75854;SDS011;64502;59.976;30.316;2024-02-15T13:08:08;26.75;;;10.50;;
75854;SDS011;64502;59.976;30.316;2024-02-15T13:10:52;23.75;;;9.15;;
75854;SDS011;64502;59.976;30.316;2024-02-15T13:13:18;27.65;;;9.88;;
75854;SDS011;64502;59.976;30.316;2024-02-15T13:15:45;26.90;;;10.77;;
75854;SDS011;64502;59.976;30.316;2024-02-15T13:18:12;29.05;;;10.05;;
75854;SDS011;64502;59.976;30.316;2024-02-15T13:20:38;21.13;;;8.93;;
75854;SDS011;64502;59.976;30.316;2024-02-15T13:23:05;24.92;;;10.10;;
75854;SDS011;64502;59.976;30.316;2024-02-15T13:25:40;28.83;;;10.25;;
75854;SDS011;64502;59.976;30.316;2024-02-15T13:28:11;27.95;;;11.10;;
75854;SDS011;64502;59.976;30.316;2024-02-15T13:30:37;28.52;;;10.27;;
75854;SDS011;64502;59.976;30.316;2024-02-15T13:33:03;25.52;;;10.38;;
75854;SDS011;64502;59.976;30.316;2024-02-15T13:35:31;29.13;;;10.00;;
75854;SDS011;64502;59.976;30.316;2024-02-15T13:38:00;21.27;;;9.77;;
75854;SDS011;64502;59.976;30.316;2024-02-15T13:40:27;27.23;;;10.88;;
75854;SDS011;64502;59.976;30.316;2024-02-15T13:42:55;27.77;;;10.13;;
75854;SDS011;64502;59.976;30.316;2024-02-15T13:45:38;23.63;;;9.80;;
75854;SDS011;64502;59.976;30.316;2024-02-15T13:48:04;20.23;;;8.05;;
75854;SDS011;64502;59.976;30.316;2024-02-15T13:50:32;20.58;;;9.57;;
75854;SDS011;64502;59.976;30.316;2024-02-15T13:52:58;29.65;;;10.32;;
75854;SDS011;64502;59.976;30.316;2024-02-15T13:55:24;24.50;;;9.90;;
75854;SDS011;64502;59.976;30.316;2024-02-15T13:57:54;25.15;;;10.07;;
75854;SDS011;64502;59.976;30.316;2024-02-15T14:00:23;28.48;;;10.50;;
75854;SDS011;64502;59.976;30.316;2024-02-15T14:02:59;27.73;;;9.73;;
75854;SDS011;64502;59.976;30.316;2024-02-15T14:05:26;28.63;;;10.75;;
75854;SDS011;64502;59.976;30.316;2024-02-15T14:08:00;23.98;;;10.05;;
75854;SDS011;64502;59.976;30.316;2024-02-15T14:10:30;25.00;;;10.20;;
75854;SDS011;64502;59.976;30.316;2024-02-15T14:12:56;26.77;;;11.15;;
75854;SDS011;64502;59.976;30.316;2024-02-15T14:15:40;25.73;;;9.15;;
75854;SDS011;64502;59.976;30.316;2024-02-15T14:18:07;26.88;;;10.60;;
75854;SDS011;64502;59.976;30.316;2024-02-15T14:20:41;25.63;;;10.27;;
75854;SDS011;64502;59.976;30.316;2024-02-15T14:23:08;22.83;;;10.07;;
75854;SDS011;64502;59.976;30.316;2024-02-15T14:25:38;23.80;;;9.63;;
75854;SDS011;64502;59.976;30.316;2024-02-15T14:30:48;22.58;;;9.10;;
75854;SDS011;64502;59.976;30.316;2024-02-15T14:33:32;21.60;;;10.07;;
75854;SDS011;64502;59.976;30.316;2024-02-15T14:35:58;26.80;;;9.63;;
75854;SDS011;64502;59.976;30.316;2024-02-15T14:38:24;28.38;;;9.75;;
75854;SDS011;64502;59.976;30.316;2024-02-15T14:40:50;30.73;;;10.75;;
75854;SDS011;64502;59.976;30.316;2024-02-15T14:43:18;29.30;;;10.32;;
75854;SDS011;64502;59.976;30.316;2024-02-15T14:45:47;21.48;;;7.57;;
75854;SDS011;64502;59.976;30.316;2024-02-15T14:48:15;23.70;;;9.10;;
75854;SDS011;64502;59.976;30.316;2024-02-15T14:50:43;28.00;;;10.50;;
75854;SDS011;64502;59.976;30.316;2024-02-15T14:53:12;26.15;;;9.25;;
75854;SDS011;64502;59.976;30.316;2024-02-15T14:58:22;25.55;;;10.27;;
75854;SDS011;64502;59.976;30.316;2024-02-15T15:00:48;28.77;;;9.63;;
75854;SDS011;64502;59.976;30.316;2024-02-15T15:03:14;25.80;;;9.73;;
75854;SDS011;64502;59.976;30.316;2024-02-15T15:05:43;28.13;;;9.80;;
75854;SDS011;64502;59.976;30.316;2024-02-15T15:08:27;29.42;;;10.07;;
75854;SDS011;64502;59.976;30.316;2024-02-15T15:11:13;28.45;;;11.40;;
75854;SDS011;64502;59.976;30.316;2024-02-15T15:13:56;32.20;;;10.02;;